• Join FlightAware (Why Join?)
  • Login
  • US Flag 
11:02AM EST


 

Airport Tracker/Info


-or-


 

Live Flight TrackerFlight Track Log ✈ CSN6820 ✈ 21-Aug-2014 ✈ ZWTN / HTN - ZWWW / URC

Flight Track Log - Related Links

Times and Time Zones

All times are in EDT time to prevent confusion due to time zone crossing. See the CSN6820 flight status page for this flight to view local times or setup timezone preferences in your user account.

Time Position Orientation Groundspeed Altitude Reporting Facility
EDT Latitude Longitude Course Direction KTS MPH feet Rate Location/Type
12:52PM 37.6230 80.4367 38° Northeast  Level Estimated
12:53PM 37.6959 80.5088 38° Northeast  Level Estimated
12:54PM 37.7687 80.5810 38° Northeast  Level Estimated
12:55PM 37.8414 80.6534 38° Northeast  Level Estimated
12:56PM 37.9142 80.7260 38° Northeast  Level Estimated
12:57PM 37.9869 80.7986 38° Northeast  Level Estimated
12:58PM 38.0595 80.8714 38° Northeast  Level Estimated
12:59PM 38.1321 80.9444 38° Northeast  Level Estimated
01:00PM 38.2047 81.0175 38° Northeast  Level Estimated
01:01PM 38.2772 81.0908 38° Northeast  Level Estimated
01:02PM 38.3496 81.1641 38° Northeast  Level Estimated
01:03PM 38.4221 81.2377 38° Northeast  Level Estimated
01:04PM 38.4944 81.3114 39° Northeast  Level Estimated
01:05PM 38.5667 81.3852 39° Northeast  Level Estimated
01:06PM 38.6390 81.4592 39° Northeast  Level Estimated
01:07PM 38.7112 81.5333 39° Northeast  Level Estimated
01:08PM 38.7834 81.6076 39° Northeast  Level Estimated
01:09PM 38.8556 81.6821 39° Northeast  Level Estimated
01:10PM 38.9277 81.7567 39° Northeast  Level Estimated
01:11PM 38.9997 81.8314 39° Northeast  Level Estimated
01:12PM 39.0717 81.9063 39° Northeast  Level Estimated
01:13PM 39.1436 81.9814 39° Northeast  Level Estimated
01:14PM 39.2155 82.0565 39° Northeast  Level Estimated
01:15PM 39.2874 82.1319 39° Northeast  Level Estimated
01:16PM 39.3592 82.2074 39° Northeast  Level Estimated
01:17PM 39.4309 82.2831 39° Northeast  Level Estimated
01:18PM 39.5026 82.3589 39° Northeast  Level Estimated
01:19PM 39.5743 82.4349 39° Northeast  Level Estimated
01:20PM 39.6459 82.5110 39° Northeast  Level Estimated
01:21PM 39.7174 82.5873 39° Northeast  Level Estimated
01:22PM 39.7889 82.6637 39° Northeast  Level Estimated
01:23PM 39.8604 82.7404 39° Northeast  Level Estimated
01:24PM 39.9318 82.8171 39° Northeast  Level Estimated
01:25PM 40.0031 82.8941 40° Northeast  Level Estimated
01:26PM 40.0744 82.9712 40° Northeast  Level Estimated
01:27PM 40.1457 83.0484 40° Northeast  Level Estimated
01:28PM 40.2169 83.1258 40° Northeast  Level Estimated
01:29PM 40.2880 83.2034 40° Northeast  Level Estimated
01:30PM 40.3591 83.2811 40° Northeast  Level Estimated
01:31PM 40.4302 83.3590 40° Northeast  Level Estimated
01:32PM 40.5012 83.4371 40° Northeast  Level Estimated
01:33PM 40.5721 83.5153 40° Northeast  Level Estimated
01:34PM 40.6430 83.5937 40° Northeast  Level Estimated
01:35PM 40.7138 83.6723 40° Northeast  Level Estimated
01:36PM 40.7846 83.7510 40° Northeast  Level Estimated
01:37PM 40.8553 83.8299 40° Northeast  Level Estimated
01:38PM 40.9260 83.9090 40° Northeast  Level Estimated
01:39PM 40.9966 83.9883 40° Northeast  Level Estimated
01:40PM 41.0672 84.0676 40° Northeast  Level Estimated
01:41PM 41.1377 84.1472 40° Northeast  Level Estimated
01:42PM 41.2081 84.2270 40° Northeast  Level Estimated
01:43PM 41.2785 84.3069 40° Northeast  Level Estimated
01:44PM 41.3489 84.3870 41° Northeast  Level Estimated
01:45PM 41.4191 84.4673 41° Northeast  Level Estimated
01:46PM 41.4894 84.5477 41° Northeast  Level Estimated
01:47PM 41.5595 84.6283 41° Northeast  Level Estimated
01:48PM 41.6297 84.7091 41° Northeast  Level Estimated
01:49PM 41.6997 84.7901 41° Northeast  Level Estimated
01:50PM 41.7697 84.8712 41° Northeast  Level Estimated
01:51PM 41.8397 84.9526 41° Northeast  Level Estimated
01:52PM 41.9096 85.0341 41° Northeast  Level Estimated
01:53PM 41.9794 85.1157 41° Northeast  Level Estimated
01:54PM 42.0492 85.1976 41° Northeast  Level Estimated
01:55PM 42.1189 85.2796 41° Northeast  Level Estimated
01:56PM 42.1885 85.3618 41° Northeast  Level Estimated
01:57PM 42.2581 85.4443 41° Northeast  Level Estimated
01:58PM 42.3277 85.5268 41° Northeast  Level Estimated
01:59PM 42.3971 85.6096 41° Northeast  Level Estimated
02:00PM 42.4666 85.6925 41° Northeast  Level Estimated
02:01PM 42.5359 85.7757 41° Northeast  Level Estimated
02:02PM 42.6052 85.8590 41° Northeast  Level Estimated
02:03PM 42.6745 85.9425 42° Northeast  Level Estimated
02:04PM 42.7436 86.0262 42° Northeast  Level Estimated
02:05PM 42.8128 86.1101 42° Northeast  Level Estimated
02:06PM 42.8818 86.1941 42° Northeast  Level Estimated
02:07PM 42.9508 86.2784 42° Northeast  Level Estimated
02:08PM 43.0197 86.3628 42° Northeast  Level Estimated
02:09PM 43.0886 86.4474 42° Northeast  Level Estimated
02:10PM 43.1574 86.5323 42° Northeast  Level Estimated
02:11PM 43.2262 86.6173 42° Northeast  Level Estimated
02:12PM 43.2948 86.7025 42° Northeast  Level Estimated
02:13PM 43.3635 86.7879 42° Northeast  Level Estimated
02:14PM 43.4320 86.8735 42° Northeast  Level Estimated
02:15PM 43.5005 86.9592 42° Northeast  Level Estimated
02:16PM 43.5689 87.0452 42° Northeast  Level Estimated
02:17PM 43.6373 87.1314 42° Northeast  Level Estimated
02:18PM 43.7056 87.2178 42° Northeast  Level Estimated
02:19PM 43.7738 87.3043 42° Northeast  Level Estimated
02:20PM 43.8420 87.3911 43° Northeast  Level Estimated
02:21PM 43.9071 87.4742 43° Northeast  Level Estimated
02:22PM 43.9071 87.4742 North  Level Estimated